Tropical Cyclones
[Index]
Main Index Home Page Stock Weather Photos Extreme Storms Discussion Storm News and Storm Chasing Reports Tropical Cyclones / Hurricanes / Typhoons Weather Data and Links Wild Fires / Bushfires Weather Observation Techniques Weather Picture Catalogue Tornado Pictures and Reports Stock Video Footage and DVDs for sale
Season 1999-2000 Tropical Cyclone HUDAH Track Map
Season 1999-2000 Summaries (Operational Data): [AU] [SIO] [SPAC] [SH]
<<- Previous TC | 1999-2000 Season | Next TC ->>

click for intensity scale information  Lat/long Grid: Show Hide

 Date Labels: Show Hide

Operational Tropical Cyclone Data : JTWC Advisories

Name: HUDAH
Number: 0021

24 Mar 2000 10:00 UTC to 09 Apr 2000 06:00 UTC

    date/time    lat    long     hPa   cat  kts
2000-03-24 10   15.6    93.0    1000         30          
2000-03-24 21   15.1    91.7     992         30          
2000-03-25 03   15.3    89.8     990    1    45          
2000-03-25 06   15.3    89.2     992    1    40          
2000-03-25 12   15.3    88.5     984    2    50          
2000-03-25 18   15.3    87.8     978    2    55          
2000-03-26 00   15.0    86.5     978    2    55          
2000-03-26 06   14.8    85.5     976    2    55          
2000-03-26 12   14.7    84.3     974    2    60          
2000-03-26 18   14.6    83.5     974    2    60          
2000-03-27 00   14.7    82.7     974    2    60          
2000-03-27 06   14.6    81.6     972    2    60          
2000-03-27 12   14.7    80.7     965    3    70          
2000-03-27 18   14.8    79.5     965    3    70          
2000-03-28 00   15.0    78.4     955    3    80          
2000-03-28 06   15.1    77.2     955    3    80          
2000-03-28 12   15.4    76.0     955    3    80          
2000-03-28 18   15.9    74.9     955    3    80          
2000-03-29 00   16.4    74.2     955    3    80          
2000-03-29 06   16.4    72.6     948    3    85          
2000-03-29 12   16.7    71.4     948    3    85          
2000-03-29 18   17.0    70.3     954    3    80          
2000-03-30 00   17.0    68.7     954    3    80          
2000-03-30 06   16.8    67.8     954    3    80          
2000-03-30 12   17.0    66.4     960    3    75          
2000-03-30 18   17.0    65.1     965    3    70          
2000-03-31 00   16.9    64.1     965    3    70          
2000-03-31 06   17.0    62.9     950    3    85          
2000-03-31 12   17.0    61.7     940    4    90          
2000-03-31 18   17.1    60.6     927    4   100          
2000-04-01 00   17.0    59.4     927    4   100          
2000-04-01 06   16.7    58.3     915    5   110          
2000-04-01 12   16.6    56.9     915    5   110          
2000-04-01 18   16.5    55.7     915    5   110          
2000-04-02 00   16.1    54.3     915    5   110          
2000-04-02 06   15.7    52.9     905    5   120          
2000-04-02 12   15.4    51.6     905    5   120          
2000-04-02 18   15.0    50.4     905    5   120          
2000-04-03 00   14.9    49.2                 30          
2000-04-03 06   14.9    47.4     990    1    40          
2000-04-03 12   14.9    46.4     990    1    40          
2000-04-03 18   14.8    45.0     990    1    40          
2000-04-04 00   14.8    44.0     990    1    40          
2000-04-04 06   15.0    43.2     990    1    40          
2000-04-04 12   15.5    42.4     982    2    50          
2000-04-04 18   15.8    41.6     980    2    55          
2000-04-05 00   16.5    40.8     980    2    55          
2000-04-05 06   16.7    40.2     975    2    60          
2000-04-05 12   16.9    39.7     975    2    60          
2000-04-05 18   17.3    39.3     975    2    60          
2000-04-06 00   17.7    39.2     975    3    65          
2000-04-06 06   17.9    39.0     965    3    70          
2000-04-06 12   18.5    38.7     965    3    70          
2000-04-06 18   18.9    38.6     955    3    80          
2000-04-07 00   19.0    38.3     955    3    80          
2000-04-07 06   18.7    38.3     945    3    85          
2000-04-07 12   18.5    38.2     945    3    85          
2000-04-07 18   18.2    38.5     945    3    85          
2000-04-08 00   17.9    38.5     952    3    80          
2000-04-08 06   17.1    38.3     960    3    70          
2000-04-08 12   16.4    38.4            1    45          
2000-04-08 18   15.5    39.0                 30          
2000-04-09 00   15.4    38.6                             
2000-04-09 06   15.0    38.5                             
Winds are 10-min average.

Tropical cyclone tracks developed by Michael Bath using operational warnings and advisories and Google Maps.


[Australian Severe Weather index] [Copyright Notice] [Email Contacts] [Search This Site] [Privacy Policy]
Document: tropical_cyclone_hudah.htm Updated: 4 September 2016